Time;durP1;ratioP1;P1;durP2;ratioP2;P2;SDS_P1;SDS_P2;PMS_P1;PMS_P2;Temp;Humidity;BMP_temperature;BMP_pressure;BME280_temperature;BME280_humidity;BME280_pressure;Samples;Min_cycle;Max_cycle;Signal;HPM_P1;HPM_P2
2022/07/30 00:02:06;;;;;;;1.00;0.80;;;17.90;99.90;;;;;;5073775;28;20490;-75
2022/07/30 00:04:34;;;;;;;0.70;0.70;;;17.90;99.90;;;;;;5073705;28;20833;-75
2022/07/30 00:07:02;;;;;;;0.70;0.70;;;17.90;99.90;;;;;;5073673;28;20799;-75
2022/07/30 00:09:29;;;;;;;1.10;1.00;;;17.90;99.90;;;;;;5073602;28;20469;-75
2022/07/30 00:11:56;;;;;;;0.70;0.70;;;17.90;99.90;;;;;;5073652;28;20448;-75
2022/07/30 00:14:23;;;;;;;0.70;0.70;;;17.90;99.90;;;;;;5073261;28;20948;-75
2022/07/30 00:16:49;;;;;;;0.70;0.70;;;17.90;99.90;;;;;;5073517;28;20448;-75
2022/07/30 00:19:16;;;;;;;1.20;1.10;;;18.00;99.90;;;;;;5073041;28;20495;-75
2022/07/30 00:21:44;;;;;;;1.03;0.90;;;18.00;99.90;;;;;;5073418;28;20452;-75
2022/07/30 00:24:11;;;;;;;0.97;0.90;;;18.00;99.90;;;;;;5073455;28;20440;-75
2022/07/30 00:26:38;;;;;;;1.20;0.90;;;18.10;99.90;;;;;;5073389;28;20452;-75
2022/07/30 00:29:05;;;;;;;1.03;0.97;;;18.10;99.90;;;;;;5073323;28;20469;-75
2022/07/30 00:31:32;;;;;;;1.33;1.23;;;18.20;99.90;;;;;;5073358;28;20444;-75
2022/07/30 00:33:59;;;;;;;1.00;0.90;;;18.20;99.90;;;;;;5073322;28;20449;-75
2022/07/30 00:36:26;;;;;;;1.30;1.20;;;18.20;99.90;;;;;;5073305;28;20449;-75
2022/07/30 00:38:54;;;;;;;2.27;1.37;;;18.30;99.90;;;;;;5072840;28;20944;-75
2022/07/30 00:41:21;;;;;;;1.97;1.00;;;18.30;99.90;;;;;;5072936;28;20480;-75
2022/07/30 00:43:48;;;;;;;0.83;0.80;;;18.30;99.90;;;;;;5073201;28;20452;-75
2022/07/30 00:46:14;;;;;;;2.03;1.23;;;18.20;99.90;;;;;;5073177;28;20452;-75
2022/07/30 00:48:41;;;;;;;2.17;1.83;;;18.30;99.90;;;;;;5074771;28;20452;-75
2022/07/30 00:51:09;;;;;;;1.27;1.03;;;18.20;99.90;;;;;;5077365;28;20455;-75
2022/07/30 00:53:36;;;;;;;0.97;0.80;;;18.20;99.90;;;;;;5077314;28;20452;-75
2022/07/30 00:56:05;;;;;;;0.60;0.60;;;18.10;99.90;;;;;;5077271;28;20475;-75
2022/07/30 00:58:32;;;;;;;1.53;1.17;;;18.20;99.90;;;;;;5076798;28;20476;-75
2022/07/30 01:00:58;;;;;;;1.00;0.80;;;18.10;99.90;;;;;;5076789;28;21022;-75
2022/07/30 01:03:25;;;;;;;1.27;1.10;;;18.10;99.90;;;;;;5077127;28;20448;-75
2022/07/30 01:05:52;;;;;;;0.60;0.60;;;18.00;99.90;;;;;;5077084;28;20452;-75
2022/07/30 01:08:19;;;;;;;0.70;0.70;;;18.00;99.90;;;;;;5077020;28;20471;-75
2022/07/30 01:10:45;;;;;;;0.80;0.80;;;18.00;99.90;;;;;;5076914;28;20469;-75
2022/07/30 01:13:14;;;;;;;1.03;0.90;;;17.90;99.90;;;;;;5076929;28;20445;-75
2022/07/30 01:15:41;;;;;;;0.73;0.73;;;17.90;99.90;;;;;;5076875;28;20471;-75
2022/07/30 01:18:12;;;;;;;1.20;0.90;;;17.90;99.90;;;;;;5076808;28;20505;-75
2022/07/30 01:20:44;;;;;;;1.40;1.30;;;17.80;99.90;;;;;;5077181;28;20444;-75
2022/07/30 01:23:23;;;;;;;1.13;1.03;;;17.80;99.90;;;;;;5076725;28;20428;-75
2022/07/30 01:25:56;;;;;;;1.07;1.07;;;17.70;99.90;;;;;;5076427;28;20938;-75
2022/07/30 01:28:26;;;;;;;1.77;1.07;;;17.70;99.90;;;;;;5076386;28;20919;-75
2022/07/30 01:30:55;;;;;;;1.43;1.10;;;17.70;99.90;;;;;;5076579;28;20472;-75
2022/07/30 01:33:24;;;;;;;0.90;0.83;;;17.70;99.90;;;;;;5076541;28;20459;-75
2022/07/30 01:35:52;;;;;;;2.83;0.87;;;17.70;99.90;;;;;;5076176;28;20970;-75
2022/07/30 01:38:22;;;;;;;2.20;0.80;;;17.60;99.90;;;;;;5076358;28;20509;-75
2022/07/30 01:40:52;;;;;;;1.53;0.90;;;17.60;99.90;;;;;;5076123;28;20492;-75
2022/07/30 01:43:21;;;;;;;0.90;0.80;;;17.60;99.90;;;;;;5076334;28;20456;-75
2022/07/30 01:45:49;;;;;;;1.13;1.10;;;17.60;99.90;;;;;;5076321;28;20570;-75
2022/07/30 01:48:18;;;;;;;1.13;1.00;;;17.50;99.90;;;;;;5075953;28;20809;-75
2022/07/30 01:50:47;;;;;;;1.10;0.80;;;17.50;99.90;;;;;;5076170;28;20472;-75
2022/07/30 01:53:16;;;;;;;1.37;0.90;;;17.50;99.90;;;;;;5076171;28;20444;-75
2022/07/30 01:55:45;;;;;;;1.00;0.90;;;17.50;99.90;;;;;;5076156;28;20803;-75
2022/07/30 01:58:16;;;;;;;1.03;0.80;;;17.50;99.90;;;;;;5076100;28;20449;-75
2022/07/30 02:00:45;;;;;;;0.80;0.80;;;17.40;99.90;;;;;;5075049;28;20507;-75
2022/07/30 02:03:12;;;;;;;0.93;0.93;;;17.40;99.90;;;;;;5075688;28;20448;-75
2022/07/30 02:05:42;;;;;;;1.70;1.10;;;17.30;99.90;;;;;;5075977;28;20456;-75
2022/07/30 02:08:15;;;;;;;0.60;0.60;;;17.30;99.90;;;;;;5075984;28;20436;-75
2022/07/30 02:10:45;;;;;;;0.83;0.80;;;17.30;99.90;;;;;;5075860;28;20460;-75
2022/07/30 02:13:17;;;;;;;0.93;0.90;;;17.30;99.90;;;;;;5075499;28;20440;-75
2022/07/30 02:15:51;;;;;;;0.70;0.70;;;17.20;99.90;;;;;;5075826;28;20439;-75
2022/07/30 02:18:22;;;;;;;1.80;0.97;;;17.20;99.90;;;;;;5075816;28;20425;-75
2022/07/30 02:20:58;;;;;;;1.03;0.80;;;17.10;99.90;;;;;;5075587;28;20508;-75
2022/07/30 02:23:28;;;;;;;0.70;0.70;;;17.10;99.90;;;;;;5075680;28;20437;-75
2022/07/30 02:25:58;;;;;;;2.20;0.93;;;17.10;99.90;;;;;;5075311;28;20448;-75
2022/07/30 02:28:28;;;;;;;1.90;1.20;;;17.10;99.90;;;;;;5075273;28;20429;-75
2022/07/30 02:30:59;;;;;;;1.93;1.10;;;17.10;99.90;;;;;;5075427;28;20465;-75
2022/07/30 02:33:29;;;;;;;0.70;0.70;;;17.10;99.90;;;;;;5075508;28;20433;-75
2022/07/30 02:35:56;;;;;;;0.97;0.80;;;17.10;99.90;;;;;;5076500;28;20787;-75
2022/07/30 02:38:26;;;;;;;0.97;0.90;;;17.10;99.90;;;;;;5075327;28;20453;-75
2022/07/30 02:40:55;;;;;;;0.80;0.73;;;17.10;99.90;;;;;;5074648;28;20495;-75
2022/07/30 02:43:23;;;;;;;0.90;0.90;;;17.10;99.90;;;;;;5075284;28;20451;-75
2022/07/30 02:45:52;;;;;;;3.20;1.30;;;17.10;99.90;;;;;;5074890;28;20540;-75
2022/07/30 02:48:22;;;;;;;1.00;0.87;;;17.10;99.90;;;;;;5074923;28;20441;-75
2022/07/30 02:50:51;;;;;;;0.97;0.90;;;17.20;99.90;;;;;;5075025;28;20465;-75
2022/07/30 02:53:19;;;;;;;0.67;0.67;;;17.20;99.90;;;;;;5075087;28;20867;-75
2022/07/30 02:55:46;;;;;;;2.07;1.00;;;17.20;99.90;;;;;;5075079;28;20780;-75
2022/07/30 02:58:16;;;;;;;3.10;1.07;;;17.20;99.90;;;;;;5074969;28;20445;-75
2022/07/30 03:00:44;;;;;;;1.10;0.70;;;17.20;99.90;;;;;;5074825;28;20495;-75
2022/07/30 03:03:13;;;;;;;0.87;0.87;;;17.20;99.90;;;;;;5074877;28;20442;-75
2022/07/30 03:05:41;;;;;;;2.10;1.30;;;17.10;99.90;;;;;;5074820;28;20452;-75
2022/07/30 03:08:09;;;;;;;1.30;1.07;;;17.10;99.90;;;;;;5074776;28;20448;-75
2022/07/30 03:10:37;;;;;;;0.83;0.83;;;17.10;99.90;;;;;;5074657;28;20457;-75
2022/07/30 03:13:06;;;;;;;1.43;1.33;;;17.10;99.90;;;;;;5074680;28;20441;-75
2022/07/30 03:15:35;;;;;;;1.33;1.10;;;17.10;99.90;;;;;;5074631;28;20455;-75
2022/07/30 03:18:03;;;;;;;1.00;0.80;;;17.10;99.90;;;;;;5074592;28;20441;-75
2022/07/30 03:20:34;;;;;;;1.53;1.13;;;17.10;99.90;;;;;;5074398;28;20481;-75
2022/07/30 03:23:03;;;;;;;1.27;1.13;;;17.10;99.90;;;;;;5074552;28;20429;-75
2022/07/30 03:25:31;;;;;;;2.83;1.00;;;17.00;99.90;;;;;;5074119;28;20960;-75
2022/07/30 03:28:01;;;;;;;1.27;1.00;;;17.10;99.90;;;;;;5074348;28;20456;-75
2022/07/30 03:30:29;;;;;;;1.50;1.40;;;17.00;99.90;;;;;;5074292;28;20469;-75
2022/07/30 03:32:56;;;;;;;1.97;1.73;;;17.00;99.90;;;;;;5074273;28;20453;-76
2022/07/30 03:35:25;;;;;;;1.60;1.37;;;17.00;99.90;;;;;;5074236;28;20452;-75
2022/07/30 03:37:54;;;;;;;2.37;1.00;;;17.00;99.90;;;;;;5074547;28;20453;-75
2022/07/30 03:40:21;;;;;;;2.20;1.00;;;17.00;99.90;;;;;;5073482;28;20534;-75
2022/07/30 03:42:49;;;;;;;1.30;0.93;;;17.00;99.90;;;;;;5073852;28;20901;-75
2022/07/30 03:45:17;;;;;;;0.80;0.80;;;17.00;99.90;;;;;;5074076;28;20436;-75
2022/07/30 03:47:46;;;;;;;0.97;0.87;;;17.00;99.90;;;;;;5073989;28;20441;-75
2022/07/30 03:50:13;;;;;;;1.13;1.03;;;17.00;99.90;;;;;;5073880;28;20465;-75
2022/07/30 03:52:42;;;;;;;1.40;1.13;;;17.00;99.90;;;;;;5073889;28;20441;-75
2022/07/30 03:55:12;;;;;;;0.60;0.60;;;17.00;99.90;;;;;;5073861;28;20514;-75
2022/07/30 03:57:39;;;;;;;1.03;0.93;;;17.00;99.90;;;;;;5073819;28;20445;-75
2022/07/30 04:00:07;;;;;;;0.87;0.87;;;17.00;99.90;;;;;;5073674;28;20521;-75
2022/07/30 04:02:41;;;;;;;1.60;1.30;;;17.00;99.90;;;;;;5073765;28;20453;-75
2022/07/30 04:05:08;;;;;;;1.60;1.50;;;17.00;99.90;;;;;;5073743;28;20429;-75
2022/07/30 04:07:35;;;;;;;1.23;0.90;;;17.00;99.90;;;;;;5073657;28;20449;-75
2022/07/30 04:10:02;;;;;;;3.07;1.10;;;17.00;99.90;;;;;;5073292;28;20856;-75
2022/07/30 04:12:30;;;;;;;2.07;1.33;;;17.00;99.90;;;;;;5073607;28;20445;-75
2022/07/30 04:14:57;;;;;;;1.00;0.90;;;17.00;99.90;;;;;;5073605;28;20456;-75
2022/07/30 04:17:28;;;;;;;2.27;1.10;;;17.00;99.90;;;;;;5073559;28;20448;-75
2022/07/30 04:20:01;;;;;;;2.60;1.37;;;17.00;99.90;;;;;;5073408;28;20507;-75
2022/07/30 04:22:32;;;;;;;0.87;0.87;;;17.00;99.90;;;;;;5073459;28;20433;-75
2022/07/30 04:24:59;;;;;;;1.50;0.90;;;17.00;99.90;;;;;;5073947;28;20460;-75
2022/07/30 04:27:27;;;;;;;1.40;1.23;;;17.00;99.90;;;;;;5073493;28;20467;-75
2022/07/30 04:29:56;;;;;;;2.03;1.30;;;17.00;99.90;;;;;;5073368;28;20472;-75
2022/07/30 04:32:23;;;;;;;1.47;1.37;;;17.00;99.90;;;;;;5073087;28;20967;-75
2022/07/30 04:34:51;;;;;;;1.23;0.80;;;17.10;99.90;;;;;;5073396;28;20444;-75
2022/07/30 04:37:21;;;;;;;1.20;0.93;;;17.10;99.90;;;;;;5073338;28;20449;-75
2022/07/30 04:39:50;;;;;;;1.23;1.13;;;17.10;99.90;;;;;;5073222;28;20481;-75
2022/07/30 04:42:17;;;;;;;1.83;1.10;;;17.10;99.90;;;;;;5072876;28;20507;-75
2022/07/30 04:44:43;;;;;;;1.73;1.50;;;17.20;99.90;;;;;;5072982;28;20940;-75
2022/07/30 04:47:12;;;;;;;1.20;0.87;;;17.20;99.90;;;;;;5073228;28;20448;-76
2022/07/30 04:49:40;;;;;;;1.30;1.10;;;17.20;99.90;;;;;;5073192;28;20475;-76
2022/07/30 04:52:08;;;;;;;1.17;0.70;;;17.20;99.90;;;;;;5073199;28;20448;-76
2022/07/30 04:54:41;;;;;;;1.30;1.10;;;17.20;99.90;;;;;;5073197;28;20452;-76
2022/07/30 04:57:08;;;;;;;1.33;1.00;;;17.30;99.90;;;;;;5073199;28;20486;-77
2022/07/30 04:59:36;;;;;;;1.17;1.07;;;17.20;99.90;;;;;;5072668;28;20992;-76
2022/07/30 05:02:04;;;;;;;1.00;1.00;;;17.30;99.90;;;;;;5072803;28;20460;-76
2022/07/30 05:04:34;;;;;;;1.80;1.07;;;17.30;99.90;;;;;;5073086;28;20460;-75
2022/07/30 05:07:02;;;;;;;0.97;0.97;;;17.40;99.90;;;;;;5073062;28;20456;-76
2022/07/30 05:09:29;;;;;;;2.13;0.97;;;17.40;99.90;;;;;;5073049;28;20461;-76
2022/07/30 05:11:58;;;;;;;1.80;1.00;;;17.40;99.90;;;;;;5073857;28;20796;-76
2022/07/30 05:14:25;;;;;;;0.90;0.70;;;17.40;99.90;;;;;;5073022;28;20869;-76
2022/07/30 05:16:53;;;;;;;3.33;1.23;;;17.50;99.90;;;;;;5072980;28;20445;-76
2022/07/30 05:19:21;;;;;;;1.53;1.30;;;17.50;99.90;;;;;;5072934;28;20473;-76
2022/07/30 05:21:49;;;;;;;1.00;1.00;;;17.60;99.90;;;;;;5072856;28;20481;-76
2022/07/30 05:24:16;;;;;;;1.90;1.70;;;17.60;99.90;;;;;;5072906;28;20452;-77
2022/07/30 05:26:43;;;;;;;0.73;0.73;;;17.70;99.90;;;;;;5072901;28;20452;-76
2022/07/30 05:29:10;;;;;;;1.53;1.13;;;17.70;99.90;;;;;;5072817;28;20457;-76
2022/07/30 05:31:37;;;;;;;1.50;1.40;;;17.80;99.90;;;;;;5072864;28;20444;-76
2022/07/30 05:34:04;;;;;;;1.10;1.00;;;17.80;99.90;;;;;;5072580;28;20433;-76
2022/07/30 05:36:31;;;;;;;1.60;1.00;;;17.80;99.90;;;;;;5075453;28;20447;-76
2022/07/30 05:38:59;;;;;;;1.13;1.03;;;17.90;99.90;;;;;;5076635;28;20459;-76
2022/07/30 05:41:26;;;;;;;2.47;0.87;;;17.90;99.90;;;;;;5076024;28;20491;-76
2022/07/30 05:43:53;;;;;;;2.50;1.10;;;18.00;99.90;;;;;;5076430;28;20452;-76
2022/07/30 05:46:20;;;;;;;4.20;1.60;;;18.00;99.90;;;;;;5076096;28;20970;-76
2022/07/30 05:48:47;;;;;;;1.23;0.83;;;18.10;99.90;;;;;;5076274;28;20443;-76
2022/07/30 05:51:13;;;;;;;1.30;1.20;;;18.10;99.90;;;;;;5076329;28;20445;-76
2022/07/30 05:53:40;;;;;;;2.30;1.20;;;18.20;99.90;;;;;;5076248;28;20455;-76
2022/07/30 05:56:08;;;;;;;1.77;1.10;;;18.20;99.90;;;;;;5076212;28;20448;-76
2022/07/30 05:58:35;;;;;;;1.63;1.50;;;18.30;99.90;;;;;;5076169;28;20455;-76
2022/07/30 06:01:02;;;;;;;3.27;1.03;;;18.40;99.90;;;;;;5075961;28;20491;-76
2022/07/30 06:03:29;;;;;;;1.73;1.10;;;18.40;99.90;;;;;;5075764;28;20959;-75
2022/07/30 06:05:56;;;;;;;1.90;1.40;;;18.60;99.90;;;;;;5076027;28;20452;-75
2022/07/30 06:08:22;;;;;;;0.90;0.90;;;18.70;99.90;;;;;;5075924;28;20460;-75
2022/07/30 06:10:49;;;;;;;1.10;1.00;;;18.80;99.90;;;;;;5075503;28;20827;-75
2022/07/30 06:13:17;;;;;;;3.77;1.50;;;19.00;99.90;;;;;;5075852;28;20445;-75
2022/07/30 06:15:44;;;;;;;1.97;1.77;;;19.10;99.90;;;;;;5075773;28;20452;-75
2022/07/30 06:18:11;;;;;;;2.20;1.50;;;19.30;99.90;;;;;;5075755;28;20524;-75
2022/07/30 06:20:37;;;;;;;1.67;1.47;;;19.40;99.90;;;;;;5075606;28;20507;-75
2022/07/30 06:23:04;;;;;;;1.07;1.00;;;19.60;99.90;;;;;;5075325;28;20971;-75
2022/07/30 06:25:31;;;;;;;1.50;1.13;;;19.70;99.90;;;;;;5075630;28;20440;-75
2022/07/30 06:27:58;;;;;;;2.57;2.30;;;19.90;99.90;;;;;;5075468;28;20775;-75
2022/07/30 06:30:27;;;;;;;2.70;1.60;;;20.00;99.90;;;;;;5075492;28;20463;-75
2022/07/30 06:32:54;;;;;;;1.50;1.40;;;20.20;99.90;;;;;;5075492;28;20452;-75
2022/07/30 06:35:21;;;;;;;1.70;1.50;;;20.30;99.90;;;;;;5075425;28;20452;-75
2022/07/30 06:37:48;;;;;;;2.73;1.33;;;20.50;99.90;;;;;;5075429;28;20540;-75
2022/07/30 06:40:14;;;;;;;1.67;1.07;;;20.60;99.90;;;;;;5075008;28;20480;-75
2022/07/30 06:42:41;;;;;;;2.63;2.00;;;20.80;99.90;;;;;;5075315;28;20441;-75
2022/07/30 06:45:09;;;;;;;3.17;1.47;;;21.00;99.90;;;;;;5075168;28;20456;-75
2022/07/30 06:47:37;;;;;;;1.43;1.33;;;21.10;99.90;;;;;;5074915;28;20436;-75
2022/07/30 06:50:05;;;;;;;1.80;1.70;;;21.20;99.90;;;;;;5075125;28;20464;-75
2022/07/30 06:52:32;;;;;;;1.50;1.40;;;21.30;99.90;;;;;;5074778;28;20448;-76
2022/07/30 06:54:59;;;;;;;1.60;1.50;;;21.40;99.90;;;;;;5075063;28;20506;-75
2022/07/30 06:57:26;;;;;;;1.80;1.17;;;21.60;99.90;;;;;;5075015;28;20440;-76
2022/07/30 06:59:53;;;;;;;1.47;1.37;;;21.70;99.90;;;;;;5074654;28;20956;-76
2022/07/30 07:02:19;;;;;;;2.50;1.87;;;21.90;99.90;;;;;;5074573;28;20488;-75
2022/07/30 07:04:48;;;;;;;2.00;1.43;;;21.90;99.90;;;;;;5074887;28;20448;-76
2022/07/30 07:07:14;;;;;;;3.70;2.03;;;22.00;99.90;;;;;;5074846;28;20448;-76
2022/07/30 07:09:41;;;;;;;3.80;2.00;;;22.20;99.90;;;;;;5074432;28;21018;-76
2022/07/30 07:12:08;;;;;;;2.17;1.53;;;22.20;99.90;;;;;;5074751;28;20440;-76
2022/07/30 07:14:35;;;;;;;3.40;1.90;;;22.30;99.90;;;;;;5074681;28;20444;-76
2022/07/30 07:17:01;;;;;;;1.73;1.23;;;22.40;99.90;;;;;;5074623;28;20456;-76
2022/07/30 07:19:28;;;;;;;1.93;1.50;;;22.30;99.90;;;;;;5074217;28;20979;-76
2022/07/30 07:21:57;;;;;;;1.70;1.50;;;22.50;99.90;;;;;;5074392;28;20476;-76
2022/07/30 07:24:24;;;;;;;2.40;1.40;;;22.50;99.90;;;;;;5074215;28;20473;-76
2022/07/30 07:26:50;;;;;;;1.90;1.73;;;22.60;99.90;;;;;;5074128;28;20948;-76
2022/07/30 07:29:17;;;;;;;2.87;1.50;;;22.70;99.90;;;;;;5074077;28;20464;-76
2022/07/30 07:31:44;;;;;;;1.27;1.17;;;22.80;99.90;;;;;;5074335;28;20448;-76
2022/07/30 07:34:11;;;;;;;1.33;1.23;;;23.00;99.90;;;;;;5074327;28;20247;-76
2022/07/30 07:36:38;;;;;;;3.03;1.20;;;23.10;99.90;;;;;;5074260;28;20202;-76
2022/07/30 07:39:08;;;;;;;1.10;0.90;;;23.30;99.90;;;;;;5074166;28;20724;-76
2022/07/30 07:41:35;;;;;;;3.37;1.27;;;23.40;99.90;;;;;;5073606;28;21014;-76
2022/07/30 07:44:02;;;;;;;1.33;1.23;;;23.50;99.90;;;;;;5074117;28;20198;-76
2022/07/30 07:46:29;;;;;;;1.42;1.33;;;23.60;99.90;;;;;;5074124;28;20571;-76
2022/07/30 07:48:56;;;;;;;1.55;1.23;;;23.70;99.90;;;;;;5073981;28;20205;-76
2022/07/30 07:51:23;;;;;;;1.42;1.33;;;23.80;99.90;;;;;;5074010;28;20277;-76
2022/07/30 07:53:49;;;;;;;1.52;1.42;;;23.80;99.90;;;;;;5073653;28;20203;-76
2022/07/30 07:56:19;;;;;;;1.23;1.13;;;24.00;99.90;;;;;;5073904;28;20202;-76
2022/07/30 07:58:46;;;;;;;1.35;1.15;;;24.10;99.90;;;;;;5073041;28;20271;-76
2022/07/30 08:01:13;;;;;;;1.50;1.40;;;24.30;99.90;;;;;;5074346;28;20220;-76
2022/07/30 08:03:40;;;;;;;1.77;1.42;;;24.30;99.90;;;;;;5073787;28;20201;-76
2022/07/30 08:06:07;;;;;;;1.48;1.38;;;24.40;99.90;;;;;;5073405;28;20198;-76
2022/07/30 08:08:35;;;;;;;1.38;1.27;;;24.50;99.90;;;;;;5073647;28;20198;-76
2022/07/30 08:11:03;;;;;;;1.23;1.13;;;24.60;99.90;;;;;;5073589;28;20231;-76
2022/07/30 08:13:31;;;;;;;8.18;2.17;;;24.80;99.90;;;;;;5074031;28;20202;-76
2022/07/30 08:15:58;;;;;;;2.00;1.83;;;24.90;99.90;;;;;;5073542;28;20202;-76
2022/07/30 08:18:25;;;;;;;1.20;1.00;;;25.10;99.90;;;;;;5073252;28;20293;-77
2022/07/30 08:20:52;;;;;;;1.00;1.00;;;25.10;99.90;;;;;;5073183;28;20320;-76
2022/07/30 08:23:21;;;;;;;1.05;0.90;;;25.30;99.90;;;;;;5073279;28;20565;-76
2022/07/30 08:25:47;;;;;;;2.67;1.17;;;25.40;99.90;;;;;;5073206;28;20633;-76
2022/07/30 08:28:14;;;;;;;1.88;1.08;;;25.40;99.90;;;;;;5073423;28;20198;-76
2022/07/30 08:30:43;;;;;;;1.00;1.00;;;25.20;99.90;;;;;;5073361;28;20594;-76
2022/07/30 08:33:09;;;;;;;0.88;0.88;;;25.10;99.90;;;;;;5073363;28;20198;-76
2022/07/30 08:35:36;;;;;;;2.33;1.08;;;25.00;99.90;;;;;;5073062;28;20681;-76
2022/07/30 08:38:03;;;;;;;1.00;1.00;;;25.10;99.90;;;;;;5073388;28;20213;-76
2022/07/30 08:40:33;;;;;;;1.30;1.20;;;25.40;99.40;;;;;;5072906;28;20241;-76
2022/07/30 08:43:01;;;;;;;0.80;0.80;;;25.30;99.80;;;;;;5073334;28;20201;-76
2022/07/30 08:45:29;;;;;;;1.02;0.90;;;25.40;99.40;;;;;;5073264;28;20198;-76
2022/07/30 08:47:59;;;;;;;1.40;1.20;;;25.40;99.50;;;;;;5072884;28;20685;-76
2022/07/30 08:50:26;;;;;;;0.80;0.80;;;25.50;99.70;;;;;;5073167;28;20222;-76
2022/07/30 08:52:54;;;;;;;1.15;1.05;;;25.60;99.00;;;;;;5072871;28;20621;-76
2022/07/30 08:55:21;;;;;;;1.20;1.10;;;25.80;99.60;;;;;;5073199;28;20288;-76
2022/07/30 08:57:48;;;;;;;0.88;0.88;;;26.00;97.50;;;;;;5073129;28;20202;-76
2022/07/30 09:00:16;;;;;;;1.45;1.17;;;26.00;97.80;;;;;;5073060;28;20229;-76
2022/07/30 09:02:43;;;;;;;0.80;0.80;;;25.90;97.90;;;;;;5072690;28;20218;-76
2022/07/30 09:05:12;;;;;;;1.38;0.90;;;25.90;98.90;;;;;;5073054;28;20562;-76
2022/07/30 09:07:39;;;;;;;0.90;0.90;;;25.90;98.00;;;;;;5073060;28;20198;-76
2022/07/30 09:10:08;;;;;;;0.90;0.90;;;25.90;96.10;;;;;;5075148;28;20227;-76
2022/07/30 09:12:37;;;;;;;1.30;1.20;;;25.90;96.50;;;;;;5076777;28;20208;-76
2022/07/30 09:15:07;;;;;;;0.80;0.80;;;25.90;96.70;;;;;;5077059;28;20552;-76
2022/07/30 09:17:52;;;;;;;1.58;1.02;;;26.00;96.90;;;;;;5076958;28;20201;-76
2022/07/30 09:20:21;;;;;;;0.88;0.85;;;26.30;95.40;;;;;;5076802;28;20224;-76
2022/07/30 09:22:51;;;;;;;3.92;0.80;;;26.30;95.20;;;;;;5076777;28;20229;-76
2022/07/30 09:25:33;;;;;;;2.10;0.90;;;26.00;95.80;;;;;;5076813;28;20220;-76
2022/07/30 09:28:01;;;;;;;1.00;0.80;;;25.80;95.30;;;;;;5076798;28;20558;-76
2022/07/30 09:30:42;;;;;;;1.13;1.02;;;25.60;95.50;;;;;;5076364;28;20230;-76
2022/07/30 09:33:09;;;;;;;0.88;0.88;;;25.60;95.60;;;;;;5076769;28;20182;-76
2022/07/30 09:35:37;;;;;;;1.20;1.10;;;25.80;96.40;;;;;;5076587;28;20198;-76
2022/07/30 09:38:06;;;;;;;0.82;0.82;;;25.90;94.50;;;;;;5076485;28;20202;-76
2022/07/30 09:40:33;;;;;;;1.13;1.02;;;26.00;94.50;;;;;;5076213;28;20599;-76
2022/07/30 09:43:05;;;;;;;0.90;0.90;;;26.00;93.10;;;;;;5076375;28;20203;-76
2022/07/30 09:45:32;;;;;;;3.83;1.27;;;26.00;93.30;;;;;;5076383;28;20210;-76
2022/07/30 09:48:00;;;;;;;0.90;0.90;;;25.90;92.30;;;;;;5076335;28;20638;-76
2022/07/30 09:50:28;;;;;;;0.90;0.80;;;25.80;92.40;;;;;;5076207;28;20249;-76
2022/07/30 09:53:06;;;;;;;1.80;1.10;;;25.80;92.40;;;;;;5076186;28;20194;-76
2022/07/30 09:55:35;;;;;;;0.80;0.80;;;25.80;93.20;;;;;;5075959;28;20650;-77
2022/07/30 09:58:04;;;;;;;1.30;1.23;;;26.00;92.80;;;;;;5076178;28;20206;-76
2022/07/30 10:00:33;;;;;;;1.65;1.55;;;26.30;93.30;;;;;;5076071;28;20225;-76
2022/07/30 10:03:00;;;;;;;1.02;1.02;;;26.50;90.80;;;;;;5076070;28;20225;-77
2022/07/30 10:05:28;;;;;;;1.38;1.27;;;26.60;92.00;;;;;;5076094;28;20197;-77
2022/07/30 10:07:58;;;;;;;0.70;0.70;;;26.70;91.20;;;;;;5075982;28;20206;-77
2022/07/30 10:10:27;;;;;;;4.82;1.20;;;26.70;90.80;;;;;;5075997;28;20241;-77
2022/07/30 10:12:57;;;;;;;0.90;0.90;;;27.00;90.30;;;;;;5075932;28;20194;-77
2022/07/30 10:15:28;;;;;;;3.30;1.00;;;27.00;90.80;;;;;;5075975;28;20190;-76
2022/07/30 10:17:56;;;;;;;1.55;0.95;;;26.70;90.00;;;;;;5075581;28;20657;-76
2022/07/30 10:20:22;;;;;;;1.30;0.90;;;26.30;90.90;;;;;;5075645;28;20226;-77
2022/07/30 10:22:49;;;;;;;0.80;0.80;;;26.00;90.90;;;;;;5074837;28;20582;-77
2022/07/30 10:25:19;;;;;;;2.50;0.80;;;25.80;91.60;;;;;;5075478;28;20677;-77
2022/07/30 10:27:46;;;;;;;1.00;1.00;;;25.70;91.30;;;;;;5075714;28;20229;-77
2022/07/30 10:30:13;;;;;;;0.88;0.88;;;25.90;93.00;;;;;;5075588;28;20229;-77
2022/07/30 10:32:41;;;;;;;1.02;0.80;;;26.10;91.70;;;;;;5075616;28;20204;-77
2022/07/30 10:35:09;;;;;;;0.88;0.88;;;26.30;90.50;;;;;;5075572;28;20202;-77
2022/07/30 10:37:37;;;;;;;0.70;0.70;;;26.60;91.00;;;;;;5075530;28;20202;-77
2022/07/30 10:40:10;;;;;;;1.23;0.90;;;26.90;90.20;;;;;;5075480;28;20233;-77
2022/07/30 10:43:09;;;;;;;1.02;0.93;;;27.20;89.30;;;;;;5075424;28;20213;-77
2022/07/30 10:45:48;;;;;;;1.38;0.82;;;27.70;90.40;;;;;;5075450;28;20218;-77
2022/07/30 10:48:15;;;;;;;1.13;1.02;;;28.00;83.10;;;;;;5075120;28;20633;-77
2022/07/30 10:50:53;;;;;;;0.90;0.90;;;28.10;80.70;;;;;;5075200;28;20218;-77
2022/07/30 10:53:36;;;;;;;1.20;1.10;;;28.10;81.70;;;;;;5074983;28;20652;-77
2022/07/30 10:56:18;;;;;;;1.38;1.27;;;27.80;84.50;;;;;;5075545;28;20204;-77
2022/07/30 10:59:04;;;;;;;0.88;0.85;;;27.60;82.00;;;;;;5075097;28;20190;-77
2022/07/30 11:02:08;;;;;;;0.77;0.70;;;27.40;84.40;;;;;;5075050;28;20195;-77
2022/07/30 11:04:35;;;;;;;0.70;0.70;;;27.90;85.20;;;;;;5075019;28;20201;-77
2022/07/30 11:07:28;;;;;;;2.95;0.80;;;28.70;79.30;;;;;;5074639;28;20546;-81
2022/07/30 11:09:55;;;;;;;1.20;1.20;;;29.60;76.90;;;;;;5075153;28;20271;-77
2022/07/30 11:12:53;;;;;;;0.80;0.80;;;30.00;75.30;;;;;;5074849;28;20202;-77
2022/07/30 11:15:21;;;;;;;1.02;0.98;;;30.20;73.90;;;;;;5074846;28;20213;-77
2022/07/30 11:18:04;;;;;;;0.80;0.80;;;30.10;73.00;;;;;;5074701;28;20224;-77
2022/07/30 11:20:31;;;;;;;0.90;0.90;;;29.80;72.20;;;;;;5074641;28;20227;-77
2022/07/30 11:23:36;;;;;;;0.70;0.70;;;29.30;71.60;;;;;;5074545;28;20226;-77
2022/07/30 11:26:03;;;;;;;0.70;0.70;;;28.60;72.30;;;;;;5074870;28;20209;-77
2022/07/30 11:28:40;;;;;;;0.70;0.70;;;28.10;71.80;;;;;;5074232;28;20206;-77
2022/07/30 11:31:30;;;;;;;0.70;0.70;;;28.00;74.60;;;;;;5074151;28;20229;-77
2022/07/30 11:34:27;;;;;;;0.75;0.70;;;28.00;75.30;;;;;;5073434;28;20260;-77
2022/07/30 11:37:11;;;;;;;1.00;0.90;;;27.90;74.90;;;;;;5074280;28;20198;-78
2022/07/30 11:40:09;;;;;;;1.20;0.88;;;27.80;73.10;;;;;;5073965;28;20226;-77
2022/07/30 11:42:38;;;;;;;2.05;0.80;;;27.70;74.20;;;;;;5074232;28;20213;-77
2022/07/30 11:45:25;;;;;;;0.80;0.80;;;27.80;73.70;;;;;;5074193;28;20202;-77
2022/07/30 11:47:55;;;;;;;2.38;0.90;;;27.80;72.90;;;;;;5074209;28;20593;-77
2022/07/30 11:50:25;;;;;;;0.80;0.80;;;27.90;74.00;;;;;;5073814;28;20233;-77
2022/07/30 11:52:52;;;;;;;1.67;0.98;;;27.90;72.50;;;;;;5074068;28;20248;-77
2022/07/30 11:55:24;;;;;;;1.00;0.90;;;27.70;74.10;;;;;;5074009;28;20206;-77
2022/07/30 11:57:51;;;;;;;0.70;0.70;;;27.40;71.30;;;;;;5073676;28;20202;-77
2022/07/30 12:00:18;;;;;;;2.25;0.65;;;27.00;75.00;;;;;;5073866;28;20218;-77
2022/07/30 12:02:45;;;;;;;0.93;0.73;;;26.90;77.10;;;;;;5073503;28;20700;-77
2022/07/30 12:05:14;;;;;;;0.70;0.70;;;27.00;75.00;;;;;;5073825;28;20202;-77
2022/07/30 12:07:41;;;;;;;0.70;0.70;;;27.00;73.00;;;;;;5073807;28;20202;-77
2022/07/30 12:10:15;;;;;;;1.20;1.10;;;26.90;73.00;;;;;;5073742;28;20218;-78
2022/07/30 12:12:42;;;;;;;0.80;0.80;;;27.10;75.70;;;;;;5073758;28;20198;-82
2022/07/30 12:15:10;;;;;;;1.27;0.77;;;27.20;76.90;;;;;;5074257;28;20202;-82
2022/07/30 12:17:42;;;;;;;0.75;0.75;;;27.50;74.30;;;;;;5073405;28;20697;-78
2022/07/30 12:20:17;;;;;;;0.80;0.80;;;27.70;72.60;;;;;;5073182;28;20736;-78
2022/07/30 12:22:45;;;;;;;0.82;0.82;;;27.70;70.00;;;;;;5073539;28;20210;-78
2022/07/30 12:25:12;;;;;;;0.63;0.63;;;27.80;68.00;;;;;;5073593;28;20206;-78
2022/07/30 12:27:40;;;;;;;0.60;0.50;;;27.60;70.20;;;;;;5073551;28;20213;-78
2022/07/30 12:30:08;;;;;;;0.70;0.70;;;27.60;72.70;;;;;;5073180;28;20731;-78
2022/07/30 12:32:36;;;;;;;0.70;0.70;;;27.60;70.50;;;;;;5073512;28;20198;-78
2022/07/30 12:35:03;;;;;;;0.70;0.70;;;27.50;72.70;;;;;;5073521;28;20206;-78
2022/07/30 12:37:31;;;;;;;0.95;0.73;;;27.40;71.30;;;;;;5073466;28;20212;-78
2022/07/30 12:40:09;;;;;;;0.75;0.75;;;27.40;70.80;;;;;;5073386;28;20229;-78
2022/07/30 12:42:37;;;;;;;1.02;1.00;;;27.20;72.20;;;;;;5073363;28;20214;-78
2022/07/30 12:45:05;;;;;;;0.70;0.70;;;27.00;70.30;;;;;;5072759;28;20210;-78
2022/07/30 12:47:33;;;;;;;1.05;0.80;;;26.80;74.20;;;;;;5073399;28;20197;-78
2022/07/30 12:50:02;;;;;;;0.70;0.70;;;26.60;76.00;;;;;;5073267;28;20251;-78
2022/07/30 12:52:32;;;;;;;0.93;0.70;;;26.50;76.30;;;;;;5073023;28;20204;-78
2022/07/30 12:55:05;;;;;;;0.70;0.70;;;26.40;74.50;;;;;;5073277;28;20198;-78
2022/07/30 12:58:00;;;;;;;0.80;0.80;;;26.50;74.30;;;;;;5073309;28;20186;-78
2022/07/30 13:00:29;;;;;;;0.90;0.90;;;26.70;75.40;;;;;;5037754;28;20226;-78